United Spirit — ELYB2 — position and weather

sailwx.info

Track history (hours):
 
Tides and Currents Weather Stations Pressure Air Temp Water Temp Dewpoint Dewpoint Depression Visibility Wind Speed Wind Dir Waves Ship Positions

United Spirit

Last reported at 2015-Jun-25 01:07 UTC. Time now 2015-Jul-28 03:32 UTC.
Position N 34°25' W 124°20'.
Warning: this ship's position is 33 days out of date.

Type: Cargo ship. MMSI: 636011280.

Date/timePositionNaut miles runAvg speedWind from/ knotsBaromVisibWave heightAir tempDewpointWater temp
2015-Jun-25 01:07N 34°25' W 124°20'9316.1
2015-Jun-24 19:21N 34°27' W 122°27'1315.7
2015-Jun-24 18:32N 34°26' W 122°12'1515.7
2015-Jun-24 17:33N 34°26' W 121°53'1616.0
2015-Jun-24 16:33N 34°26' W 121°33'1816.3
2015-Jun-24 15:26N 34°26' W 121°11'10016.7
2015-Jun-24 09:24N 34°03' W 119°13'3713.0
2015-Jun-24 06:33N 33°45' W 118°34'1212.4
2015-Jun-24 05:32N 33°39' W 118°21'6 6.4
2015-Jun-24 04:33N 33°44' W 118°16'2 2.3
2015-Jun-24 03:32N 33°46' W 118°15'0 0.0
2015-Jun-24 02:32N 33°46' W 118°15'0 0.0
2015-Jun-24 01:30N 33°46' W 118°15'0 0.0
2015-Jun-24 00:33N 33°46' W 118°15'0 0.0
2015-Jun-23 23:33N 33°46' W 118°15'0 0.0
2015-Jun-23 22:33N 33°46' W 118°15'0 0.0
2015-Jun-23 21:33N 33°46' W 118°15'0 0.0
2015-Jun-23 20:33N 33°46' W 118°15'0 0.0
2015-Jun-23 19:33N 33°46' W 118°15'0 0.0
2015-Jun-23 19:03N 33°46' W 118°15'160 6.7
2015-Jun-22 19:19N 34°36' W 121°19'810.6
2015-Jun-22 18:33N 34°42' W 121°25'1111.1
2015-Jun-22 17:33N 34°51' W 121°32'1211.9
2015-Jun-22 16:33N 35°01' W 121°41'1211.7
2015-Jun-22 15:33N 35°11' W 121°49'1111.2
2015-Jun-22 14:33N 35°20' W 121°56'1212.0
2015-Jun-22 13:33N 35°30' W 122°04'1717.3
2015-Jun-22 12:33N 35°45' W 122°16'1818.0
2015-Jun-22 11:33N 35°60' W 122°28'1717.4
2015-Jun-22 10:34N 36°14' W 122°41'1717.2
2015-Jun-22 09:33N 36°28' W 122°53'1717.3
2015-Jun-22 08:33N 36°43' W 123°05'1717.5
2015-Jun-22 07:34N 36°57' W 123°17'1717.3
2015-Jun-22 06:33N 37°11' W 123°29'1717.5
2015-Jun-22 05:34N 37°26' W 123°41'1717.4
2015-Jun-22 04:33N 37°42' W 123°49'1817.5
2015-Jun-22 03:33N 37°59' W 123°57'1717.4
2015-Jun-22 02:33N 38°15' W 124°05'1717.1
2015-Jun-22 01:33N 38°31' W 124°14'2117.1
2015-Jun-22 00:20N 38°50' W 124°22'1817.4
2015-Jun-21 23:17N 39°07' W 124°31'27517.1
2015-Jun-21 07:15N 43°40' W 125°13'1217.2
2015-Jun-21 06:33N 43°52' W 125°13'2217.5
2015-Jun-21 05:18N 44°14' W 125°14'1317.2
2015-Jun-21 04:33N 44°27' W 125°15'1716.8
2015-Jun-21 03:33N 44°44' W 125°15'1717.3
2015-Jun-21 02:33N 45°01' W 125°15'1817.6
2015-Jun-21 01:33N 45°19' W 125°14'1717.3
2015-Jun-21 00:33N 45°36' W 125°14'1717.1
2015-Jun-20 23:33N 45°53' W 125°15'1717.5
2015-Jun-20 22:33N 46°11' W 125°16'1717.4
2015-Jun-20 21:33N 46°28' W 125°17'1817.5
2015-Jun-20 20:33N 46°46' W 125°17'3617.8
2015-Jun-20 18:31N 47°22' W 125°17'4218.5
2015-Jun-20 16:16N 48°04' W 125°18'1318.5
2015-Jun-20 15:33N 48°16' W 125°16'1717.4
2015-Jun-20 14:33N 48°31' W 125°01'1918.5
2015-Jun-20 13:34N 48°28' W 124°33'1818.5
2015-Jun-20 12:33N 48°21' W 124°08'2018.0
2015-Jun-20 11:27N 48°16' W 123°39'1213.7
2015-Jun-20 10:33N 48°23' W 123°24'1010.0
2015-Jun-20 09:33N 48°30' W 123°13'1615.4
2015-Jun-20 08:32N 48°45' W 123°07'1313.5
2015-Jun-20 07:34N 48°57' W 123°13'10 9.6
2015-Jun-20 06:33N 49°06' W 123°18'1212.1
2015-Jun-20 05:33N 49°09' W 123°00'4 3.5
2015-Jun-20 04:31N 49°11' W 122°55'0 0.0
2015-Jun-20 03:31N 49°11' W 122°55'0 0.0
2015-Jun-20 02:31N 49°11' W 122°55'0 0.0
2015-Jun-20 01:31N 49°11' W 122°55'0 0.0
2015-Jun-20 00:31N 49°11' W 122°55'0 0.0
2015-Jun-19 23:31N 49°11' W 122°55'0 0.0
2015-Jun-19 22:31N 49°11' W 122°55'0 0.0
2015-Jun-19 21:31N 49°11' W 122°55'0 0.0
2015-Jun-19 20:31N 49°11' W 122°55'0 0.0
2015-Jun-19 19:31N 49°11' W 122°55'0 0.0
2015-Jun-19 18:31N 49°11' W 122°55'0 0.0
2015-Jun-19 17:31N 49°11' W 122°55'0 0.0
2015-Jun-19 16:31N 49°11' W 122°55'1 0.5
2015-Jun-19 15:33N 49°11' W 122°55'9 9.3
2015-Jun-19 14:33N 49°06' W 123°08'9 8.9
2015-Jun-19 13:33N 49°07' W 123°22'1111.1
2015-Jun-19 12:33N 49°18' W 123°17'4 3.9
2015-Jun-19 11:33N 49°18' W 123°11'0 0.1
2015-Jun-19 10:33N 49°18' W 123°11'0 0.0
2015-Jun-19 09:30N 49°18' W 123°11'0 0.0
2015-Jun-19 08:33N 49°18' W 123°11'0 0.0
2015-Jun-19 07:33N 49°18' W 123°11'0 0.1
2015-Jun-19 06:33N 49°18' W 123°11'0 0.0
2015-Jun-19 05:33N 49°18' W 123°11'0 0.1
2015-Jun-19 04:33N 49°18' W 123°11'0 0.0
2015-Jun-19 02:30N 49°18' W 123°11'0 0.0
2015-Jun-19 01:30N 49°18' W 123°11'0 0.0
2015-Jun-19 00:18N 49°18' W 123°11'0 0.0
2015-Jun-18 23:27N 49°18' W 123°11'0 0.0
2015-Jun-18 22:24N 49°18' W 123°11'0 0.0
2015-Jun-18 20:18N 49°18' W 123°11'0 0.0
2015-Jun-18 19:30N 49°18' W 123°11'0 0.0
2015-Jun-18 18:18N 49°18' W 123°11'0 0.0
2015-Jun-18 17:18N 49°18' W 123°11'0 0.0
2015-Jun-18 15:30N 49°18' W 123°11'0 0.0
2015-Jun-18 11:18N 49°18' W 123°11'0 0.0
2015-Jun-18 10:18N 49°18' W 123°11'0 0.0
2015-Jun-18 08:18N 49°18' W 123°11'0 0.0
2015-Jun-18 07:33N 49°18' W 123°11'0 0.0
2015-Jun-18 06:33N 49°18' W 123°11'0 0.0
2015-Jun-18 05:33N 49°18' W 123°11'0 0.0
2015-Jun-18 04:33N 49°18' W 123°11'0 0.0
2015-Jun-18 03:33N 49°18' W 123°11'0 0.0
2015-Jun-18 02:33N 49°18' W 123°11'0 0.0
2015-Jun-18 01:33N 49°18' W 123°11'0 0.0
2015-Jun-18 00:33N 49°18' W 123°11'0 0.0
2015-Jun-17 23:33N 49°18' W 123°11'0 0.0
2015-Jun-17 22:33N 49°18' W 123°11'0 0.0
2015-Jun-17 21:33N 49°18' W 123°11'0 0.1
2015-Jun-17 20:34N 49°18' W 123°11'9 9.5
2015-Jun-17 19:33N 49°11' W 123°20'1515.4
2015-Jun-17 18:33N 48°57' W 123°09'1212.4
2015-Jun-17 17:33N 48°45' W 123°06'1111.3
2015-Jun-17 16:33N 48°35' W 123°12'1211.7
2015-Jun-17 15:33N 48°23' W 123°15'6 5.6
2015-Jun-17 14:33N 48°20' W 123°22'1 0.7
2015-Jun-17 13:31N 48°20' W 123°21'0 0.1
2015-Jun-17 12:31N 48°20' W 123°21'0 0.1
2015-Jun-17 11:28N 48°20' W 123°21'0 0.0
2015-Jun-17 10:31N 48°20' W 123°21'0 0.0
2015-Jun-17 09:31N 48°20' W 123°21'0 0.0
2015-Jun-17 08:31N 48°20' W 123°21'0 0.1
2015-Jun-17 07:28N 48°20' W 123°21'0 0.0
2015-Jun-17 06:31N 48°20' W 123°21'0 0.0
2015-Jun-17 05:31N 48°20' W 123°21'0 0.1
2015-Jun-17 04:31N 48°20' W 123°21'0 0.0
2015-Jun-17 03:31N 48°20' W 123°21'0 0.0
2015-Jun-17 02:28N 48°20' W 123°21'0 0.1
2015-Jun-17 01:31N 48°20' W 123°21'0 0.0
2015-Jun-17 00:28N 48°20' W 123°21'0 0.0
2015-Jun-16 23:31N 48°20' W 123°21'0 0.0
2015-Jun-16 22:31N 48°20' W 123°21'0 0.1
2015-Jun-16 21:31N 48°20' W 123°21'0 0.0
2015-Jun-16 20:31N 48°20' W 123°21'0 0.1
2015-Jun-16 19:31N 48°20' W 123°21'0 0.2
2015-Jun-16 18:28N 48°20' W 123°22'0 0.1
2015-Jun-16 17:31N 48°20' W 123°22'0 0.0
2015-Jun-16 16:31N 48°20' W 123°22'0 0.4
2015-Jun-16 15:32N 48°20' W 123°22'0 0.4
2015-Jun-16 14:29N 48°20' W 123°22'0 0.3
2015-Jun-16 13:29N 48°20' W 123°22'0 0.2
2015-Jun-16 12:32N 48°20' W 123°21'0 0.1
2015-Jun-16 11:32N 48°20' W 123°21'0 0.1
2015-Jun-16 10:32N 48°20' W 123°21'0 0.1
2015-Jun-16 09:32N 48°20' W 123°21'0 0.0
2015-Jun-16 08:32N 48°20' W 123°21'0 0.0
2015-Jun-16 07:32N 48°20' W 123°22'0 0.0
2015-Jun-16 06:32N 48°20' W 123°22'0 0.2
2015-Jun-16 05:32N 48°20' W 123°22'0 0.1
2015-Jun-16 04:32N 48°20' W 123°22'0 0.2
2015-Jun-16 03:32N 48°20' W 123°21'0 0.1
2015-Jun-16 02:32N 48°20' W 123°21'0 0.1
2015-Jun-16 01:32N 48°20' W 123°21'0 0.0
2015-Jun-16 00:32N 48°20' W 123°21'0 0.0
2015-Jun-15 23:32N 48°20' W 123°21'0 0.0
2015-Jun-15 22:32N 48°20' W 123°21'0 0.0
2015-Jun-15 21:32N 48°20' W 123°21'7 6.7
2015-Jun-15 20:33N 48°15' W 123°27'11 8.6
2015-Jun-15 19:16N 48°14' W 123°44'6 8.2
2015-Jun-15 18:32N 48°14' W 123°53'9 9.5
2015-Jun-15 17:33N 48°17' W 124°06'1313.1
2015-Jun-15 16:33N 48°23' W 124°24'2712.1
2015-Jun-15 14:19N 48°29' W 125°03'1013.8
2015-Jun-15 13:33N 48°29' W 125°19'1414.4
2015-Jun-15 12:33N 48°29' W 125°41'1414.5
2015-Jun-15 11:33N 48°29' W 126°02'1514.7
2015-Jun-15 10:33N 48°28' W 126°25'1414.4
2015-Jun-15 09:33N 48°29' W 126°46'1514.3
2015-Jun-15 08:30N 48°29' W 127°09'1514.2
2015-Jun-15 07:29N 48°28' W 127°31'12 8.8
2015-Jun-15 06:06N 48°29' W 127°49'  
Track history (hours):
 
Tides and Currents Weather Stations Pressure Air Temp Water Temp Dewpoint Dewpoint Depression Visibility Wind Speed Wind Dir Waves Ship Positions

United Spirit

Last reported at 2015-Jun-25 01:07 UTC. Time now 2015-Jul-28 03:32 UTC.
Position N 34°25' W 124°20'.
Warning: this ship's position is 33 days out of date.

Type: Cargo ship. MMSI: 636011280.

Date/timePositionNaut miles runAvg speedWind from/ knotsBaromVisibWave heightAir tempDewpointWater temp
2015-Jun-25 01:07N 34°25' W 124°20'9316.1
2015-Jun-24 19:21N 34°27' W 122°27'1315.7
2015-Jun-24 18:32N 34°26' W 122°12'1515.7
2015-Jun-24 17:33N 34°26' W 121°53'1616.0
2015-Jun-24 16:33N 34°26' W 121°33'1816.3
2015-Jun-24 15:26N 34°26' W 121°11'10016.7
2015-Jun-24 09:24N 34°03' W 119°13'3713.0
2015-Jun-24 06:33N 33°45' W 118°34'1212.4
2015-Jun-24 05:32N 33°39' W 118°21'6 6.4
2015-Jun-24 04:33N 33°44' W 118°16'2 2.3
2015-Jun-24 03:32N 33°46' W 118°15'0 0.0
2015-Jun-24 02:32N 33°46' W 118°15'0 0.0
2015-Jun-24 01:30N 33°46' W 118°15'0 0.0
2015-Jun-24 00:33N 33°46' W 118°15'0 0.0
2015-Jun-23 23:33N 33°46' W 118°15'0 0.0
2015-Jun-23 22:33N 33°46' W 118°15'0 0.0
2015-Jun-23 21:33N 33°46' W 118°15'0 0.0
2015-Jun-23 20:33N 33°46' W 118°15'0 0.0
2015-Jun-23 19:33N 33°46' W 118°15'0 0.0
2015-Jun-23 19:03N 33°46' W 118°15'160 6.7
2015-Jun-22 19:19N 34°36' W 121°19'810.6
2015-Jun-22 18:33N 34°42' W 121°25'1111.1
2015-Jun-22 17:33N 34°51' W 121°32'1211.9
2015-Jun-22 16:33N 35°01' W 121°41'1211.7
2015-Jun-22 15:33N 35°11' W 121°49'1111.2
2015-Jun-22 14:33N 35°20' W 121°56'1212.0
2015-Jun-22 13:33N 35°30' W 122°04'1717.3
2015-Jun-22 12:33N 35°45' W 122°16'1818.0
2015-Jun-22 11:33N 35°60' W 122°28'1717.4
2015-Jun-22 10:34N 36°14' W 122°41'1717.2
2015-Jun-22 09:33N 36°28' W 122°53'1717.3
2015-Jun-22 08:33N 36°43' W 123°05'1717.5
2015-Jun-22 07:34N 36°57' W 123°17'1717.3
2015-Jun-22 06:33N 37°11' W 123°29'1717.5
2015-Jun-22 05:34N 37°26' W 123°41'1717.4
2015-Jun-22 04:33N 37°42' W 123°49'1817.5
2015-Jun-22 03:33N 37°59' W 123°57'1717.4
2015-Jun-22 02:33N 38°15' W 124°05'1717.1
2015-Jun-22 01:33N 38°31' W 124°14'2117.1
2015-Jun-22 00:20N 38°50' W 124°22'1817.4
2015-Jun-21 23:17N 39°07' W 124°31'27517.1
2015-Jun-21 07:15N 43°40' W 125°13'1217.2
2015-Jun-21 06:33N 43°52' W 125°13'2217.5
2015-Jun-21 05:18N 44°14' W 125°14'1317.2
2015-Jun-21 04:33N 44°27' W 125°15'1716.8
2015-Jun-21 03:33N 44°44' W 125°15'1717.3
2015-Jun-21 02:33N 45°01' W 125°15'1817.6
2015-Jun-21 01:33N 45°19' W 125°14'1717.3
2015-Jun-21 00:33N 45°36' W 125°14'1717.1
2015-Jun-20 23:33N 45°53' W 125°15'1717.5
2015-Jun-20 22:33N 46°11' W 125°16'1717.4
2015-Jun-20 21:33N 46°28' W 125°17'1817.5
2015-Jun-20 20:33N 46°46' W 125°17'3617.8
2015-Jun-20 18:31N 47°22' W 125°17'4218.5
2015-Jun-20 16:16N 48°04' W 125°18'1318.5
2015-Jun-20 15:33N 48°16' W 125°16'1717.4
2015-Jun-20 14:33N 48°31' W 125°01'1918.5
2015-Jun-20 13:34N 48°28' W 124°33'1818.5
2015-Jun-20 12:33N 48°21' W 124°08'2018.0
2015-Jun-20 11:27N 48°16' W 123°39'1213.7
2015-Jun-20 10:33N 48°23' W 123°24'1010.0
2015-Jun-20 09:33N 48°30' W 123°13'1615.4
2015-Jun-20 08:32N 48°45' W 123°07'1313.5
2015-Jun-20 07:34N 48°57' W 123°13'10 9.6
2015-Jun-20 06:33N 49°06' W 123°18'1212.1
2015-Jun-20 05:33N 49°09' W 123°00'4 3.5
2015-Jun-20 04:31N 49°11' W 122°55'0 0.0
2015-Jun-20 03:31N 49°11' W 122°55'0 0.0
2015-Jun-20 02:31N 49°11' W 122°55'0 0.0
2015-Jun-20 01:31N 49°11' W 122°55'0 0.0
2015-Jun-20 00:31N 49°11' W 122°55'0 0.0
2015-Jun-19 23:31N 49°11' W 122°55'0 0.0
2015-Jun-19 22:31N 49°11' W 122°55'0 0.0
2015-Jun-19 21:31N 49°11' W 122°55'0 0.0
2015-Jun-19 20:31N 49°11' W 122°55'0 0.0
2015-Jun-19 19:31N 49°11' W 122°55'0 0.0
2015-Jun-19 18:31N 49°11' W 122°55'0 0.0
2015-Jun-19 17:31N 49°11' W 122°55'0 0.0
2015-Jun-19 16:31N 49°11' W 122°55'1 0.5
2015-Jun-19 15:33N 49°11' W 122°55'9 9.3
2015-Jun-19 14:33N 49°06' W 123°08'9 8.9
2015-Jun-19 13:33N 49°07' W 123°22'1111.1
2015-Jun-19 12:33N 49°18' W 123°17'4 3.9
2015-Jun-19 11:33N 49°18' W 123°11'0 0.1
2015-Jun-19 10:33N 49°18' W 123°11'0 0.0
2015-Jun-19 09:30N 49°18' W 123°11'0 0.0
2015-Jun-19 08:33N 49°18' W 123°11'0 0.0
2015-Jun-19 07:33N 49°18' W 123°11'0 0.1
2015-Jun-19 06:33N 49°18' W 123°11'0 0.0
2015-Jun-19 05:33N 49°18' W 123°11'0 0.1
2015-Jun-19 04:33N 49°18' W 123°11'0 0.0
2015-Jun-19 02:30N 49°18' W 123°11'0 0.0
2015-Jun-19 01:30N 49°18' W 123°11'0 0.0
2015-Jun-19 00:18N 49°18' W 123°11'0 0.0
2015-Jun-18 23:27N 49°18' W 123°11'0 0.0
2015-Jun-18 22:24N 49°18' W 123°11'0 0.0
2015-Jun-18 20:18N 49°18' W 123°11'0 0.0
2015-Jun-18 19:30N 49°18' W 123°11'0 0.0
2015-Jun-18 18:18N 49°18' W 123°11'0 0.0
2015-Jun-18 17:18N 49°18' W 123°11'0 0.0
2015-Jun-18 15:30N 49°18' W 123°11'0 0.0
2015-Jun-18 11:18N 49°18' W 123°11'0 0.0
2015-Jun-18 10:18N 49°18' W 123°11'0 0.0
2015-Jun-18 08:18N 49°18' W 123°11'0 0.0
2015-Jun-18 07:33N 49°18' W 123°11'0 0.0
2015-Jun-18 06:33N 49°18' W 123°11'0 0.0
2015-Jun-18 05:33N 49°18' W 123°11'0 0.0
2015-Jun-18 04:33N 49°18' W 123°11'0 0.0
2015-Jun-18 03:33N 49°18' W 123°11'0 0.0
2015-Jun-18 02:33N 49°18' W 123°11'0 0.0
2015-Jun-18 01:33N 49°18' W 123°11'0 0.0
2015-Jun-18 00:33N 49°18' W 123°11'0 0.0
2015-Jun-17 23:33N 49°18' W 123°11'0 0.0
2015-Jun-17 22:33N 49°18' W 123°11'0 0.0
2015-Jun-17 21:33N 49°18' W 123°11'0 0.1
2015-Jun-17 20:34N 49°18' W 123°11'9 9.5
2015-Jun-17 19:33N 49°11' W 123°20'1515.4
2015-Jun-17 18:33N 48°57' W 123°09'1212.4
2015-Jun-17 17:33N 48°45' W 123°06'1111.3
2015-Jun-17 16:33N 48°35' W 123°12'1211.7
2015-Jun-17 15:33N 48°23' W 123°15'6 5.6
2015-Jun-17 14:33N 48°20' W 123°22'1 0.7
2015-Jun-17 13:31N 48°20' W 123°21'0 0.1
2015-Jun-17 12:31N 48°20' W 123°21'0 0.1
2015-Jun-17 11:28N 48°20' W 123°21'0 0.0
2015-Jun-17 10:31N 48°20' W 123°21'0 0.0
2015-Jun-17 09:31N 48°20' W 123°21'0 0.0
2015-Jun-17 08:31N 48°20' W 123°21'0 0.1
2015-Jun-17 07:28N 48°20' W 123°21'0 0.0
2015-Jun-17 06:31N 48°20' W 123°21'0 0.0
2015-Jun-17 05:31N 48°20' W 123°21'0 0.1
2015-Jun-17 04:31N 48°20' W 123°21'0 0.0
2015-Jun-17 03:31N 48°20' W 123°21'0 0.0
2015-Jun-17 02:28N 48°20' W 123°21'0 0.1
2015-Jun-17 01:31N 48°20' W 123°21'0 0.0
2015-Jun-17 00:28N 48°20' W 123°21'0 0.0
2015-Jun-16 23:31N 48°20' W 123°21'0 0.0
2015-Jun-16 22:31N 48°20' W 123°21'0 0.1
2015-Jun-16 21:31N 48°20' W 123°21'0 0.0
2015-Jun-16 20:31N 48°20' W 123°21'0 0.1
2015-Jun-16 19:31N 48°20' W 123°21'0 0.2
2015-Jun-16 18:28N 48°20' W 123°22'0 0.1
2015-Jun-16 17:31N 48°20' W 123°22'0 0.0
2015-Jun-16 16:31N 48°20' W 123°22'0 0.4
2015-Jun-16 15:32N 48°20' W 123°22'0 0.4
2015-Jun-16 14:29N 48°20' W 123°22'0 0.3
2015-Jun-16 13:29N 48°20' W 123°22'0 0.2
2015-Jun-16 12:32N 48°20' W 123°21'0 0.1
2015-Jun-16 11:32N 48°20' W 123°21'0 0.1
2015-Jun-16 10:32N 48°20' W 123°21'0 0.1
2015-Jun-16 09:32N 48°20' W 123°21'0 0.0
2015-Jun-16 08:32N 48°20' W 123°21'0 0.0
2015-Jun-16 07:32N 48°20' W 123°22'0 0.0
2015-Jun-16 06:32N 48°20' W 123°22'0 0.2
2015-Jun-16 05:32N 48°20' W 123°22'0 0.1
2015-Jun-16 04:32N 48°20' W 123°22'0 0.2
2015-Jun-16 03:32N 48°20' W 123°21'0 0.1
2015-Jun-16 02:32N 48°20' W 123°21'0 0.1
2015-Jun-16 01:32N 48°20' W 123°21'0 0.0
2015-Jun-16 00:32N 48°20' W 123°21'0 0.0
2015-Jun-15 23:32N 48°20' W 123°21'0 0.0
2015-Jun-15 22:32N 48°20' W 123°21'0 0.0
2015-Jun-15 21:32N 48°20' W 123°21'7 6.7
2015-Jun-15 20:33N 48°15' W 123°27'11 8.6
2015-Jun-15 19:16N 48°14' W 123°44'6 8.2
2015-Jun-15 18:32N 48°14' W 123°53'9 9.5
2015-Jun-15 17:33N 48°17' W 124°06'1313.1
2015-Jun-15 16:33N 48°23' W 124°24'2712.1
2015-Jun-15 14:19N 48°29' W 125°03'1013.8
2015-Jun-15 13:33N 48°29' W 125°19'1414.4
2015-Jun-15 12:33N 48°29' W 125°41'1414.5
2015-Jun-15 11:33N 48°29' W 126°02'1514.7
2015-Jun-15 10:33N 48°28' W 126°25'1414.4
2015-Jun-15 09:33N 48°29' W 126°46'1514.3
2015-Jun-15 08:30N 48°29' W 127°09'1514.2
2015-Jun-15 07:29N 48°28' W 127°31'12 8.8
2015-Jun-15 06:06N 48°29' W 127°49'  

Dump ship's entire track history